createdAt,value
2023-01-01T00:00:31.934Z,50.23
2023-01-01T00:01:32.056Z,50.23
2023-01-01T00:02:36.809Z,50.23
2023-01-01T00:03:31.918Z,50.33
2023-01-01T00:04:31.904Z,50.23
2023-01-01T00:05:31.915Z,50.33
2023-01-01T00:06:31.926Z,50.33
2023-01-01T00:07:31.944Z,50.33
2023-01-01T00:08:31.965Z,50.23
2023-01-01T00:09:31.982Z,50.33
2023-01-01T00:10:32.060Z,50.33
2023-01-01T00:11:32.025Z,50.33
2023-01-01T00:12:32.044Z,50.33
2023-01-01T00:13:32.064Z,50.33
2023-01-01T00:14:32.073Z,50.23
2023-01-01T00:15:32.108Z,50.33
2023-01-01T00:16:32.154Z,50.33
2023-01-01T00:17:32.120Z,50.33
2023-01-01T00:18:32.158Z,50.33
2023-01-01T00:19:32.175Z,50.33
2023-01-01T00:20:35.489Z,50.43
2023-01-01T00:21:32.189Z,50.43
2023-01-01T00:23:32.425Z,50.43
2023-01-01T00:24:32.430Z,50.43
2023-01-01T00:25:32.212Z,50.43
2023-01-01T00:26:35.302Z,50.33
2023-01-01T00:27:32.250Z,50.33
2023-01-01T00:28:32.225Z,50.33
2023-01-01T00:29:32.256Z,50.23
2023-01-01T00:30:32.248Z,50.23
2023-01-01T00:31:32.301Z,50.33
2023-01-01T00:32:32.314Z,50.33
2023-01-01T00:33:32.254Z,50.33
2023-01-01T00:34:32.268Z,50.23
2023-01-01T00:35:32.324Z,50.23
2023-01-01T00:36:32.284Z,50.33
2023-01-01T00:37:32.312Z,50.33
2023-01-01T00:38:32.326Z,50.33
2023-01-01T00:39:32.340Z,50.33
2023-01-01T00:40:32.372Z,50.33
2023-01-01T00:41:32.355Z,50.33
2023-01-01T00:42:32.403Z,50.33
2023-01-01T00:43:32.402Z,50.33
2023-01-01T00:44:32.453Z,50.33
2023-01-01T00:45:32.475Z,50.43
2023-01-01T00:46:32.443Z,50.33
2023-01-01T00:47:32.468Z,50.23
2023-01-01T00:48:32.492Z,50.33
2023-01-01T00:49:32.514Z,50.23
2023-01-01T00:50:32.533Z,50.23
2023-01-01T00:51:36.990Z,50.23
2023-01-01T00:52:32.591Z,50.23
2023-01-01T00:53:32.601Z,50.23
2023-01-01T00:54:32.620Z,50.23
2023-01-01T00:55:32.648Z,50.13
2023-01-01T00:56:32.664Z,50.23
2023-01-01T00:57:32.684Z,50.23
2023-01-01T00:58:32.741Z,50.23
2023-01-01T00:59:32.702Z,50.23
2023-01-01T01:00:32.733Z,50.23
2023-01-01T01:01:32.863Z,50.33
2023-01-01T01:02:33.040Z,50.33
2023-01-01T01:03:32.784Z,50.33
2023-01-01T01:04:32.804Z,50.23
2023-01-01T01:05:32.814Z,50.33
2023-01-01T01:06:32.841Z,50.33
2023-01-01T01:07:32.856Z,50.23
2023-01-01T01:08:32.881Z,50.23
2023-01-01T01:09:32.893Z,50.33
2023-01-01T01:10:32.899Z,50.23
2023-01-01T01:11:32.942Z,50.23
2023-01-01T01:12:32.956Z,50.33
2023-01-01T01:13:32.964Z,50.33
2023-01-01T01:14:33.024Z,50.23
2023-01-01T01:15:32.975Z,50.23
2023-01-01T01:16:33.136Z,50.23
2023-01-01T01:17:33.015Z,50.23
2023-01-01T01:18:33.026Z,50.23
2023-01-01T01:19:33.026Z,50.23
2023-01-01T01:20:33.049Z,50.23
2023-01-01T01:21:33.130Z,50.23
2023-01-01T01:22:33.096Z,50.23
2023-01-01T01:23:33.139Z,50.23
2023-01-01T01:24:33.163Z,50.23
2023-01-01T01:25:33.177Z,50.33
2023-01-01T01:26:33.202Z,50.23
2023-01-01T01:27:33.244Z,50.33
2023-01-01T01:28:33.276Z,50.23
2023-01-01T01:29:33.240Z,50.23
2023-01-01T01:30:33.353Z,50.23
2023-01-01T01:31:33.280Z,50.33
2023-01-01T01:32:33.288Z,50.23
2023-01-01T01:33:33.304Z,50.23
2023-01-01T01:34:33.306Z,50.23
2023-01-01T01:35:33.332Z,50.23
2023-01-01T01:36:33.368Z,50.23
2023-01-01T01:37:33.328Z,50.23
2023-01-01T01:38:33.335Z,50.13
2023-01-01T01:39:33.398Z,50.23
2023-01-01T01:40:33.350Z,50.13
2023-01-01T01:41:33.384Z,50.23
2023-01-01T01:42:33.396Z,50.23
2023-01-01T01:43:33.432Z,50.23
2023-01-01T01:44:33.400Z,50.23
2023-01-01T01:45:33.794Z,50.23
2023-01-01T01:46:33.590Z,50.23
2023-01-01T01:47:33.455Z,50.23
2023-01-01T01:48:33.528Z,50.13
2023-01-01T01:49:33.481Z,50.13
2023-01-01T01:50:33.508Z,50.13
2023-01-01T01:51:33.568Z,50.13
2023-01-01T01:52:33.535Z,50.23
2023-01-01T01:53:33.548Z,50.23
2023-01-01T01:54:33.564Z,50.23
2023-01-01T01:55:33.575Z,50.23
2023-01-01T01:56:33.599Z,50.23
2023-01-01T01:57:33.621Z,50.23
2023-01-01T01:58:33.630Z,50.23
2023-01-01T01:59:33.717Z,50.23
2023-01-01T02:00:33.663Z,50.23
2023-01-01T02:01:33.736Z,50.13
2023-01-01T02:02:33.904Z,50.23
2023-01-01T02:03:33.673Z,50.13
2023-01-01T02:04:33.687Z,50.13
2023-01-01T02:05:33.704Z,50.13
2023-01-01T02:06:33.719Z,50.13
2023-01-01T02:07:33.754Z,50.13
2023-01-01T02:08:33.756Z,50.23
2023-01-01T02:09:33.780Z,50.13
2023-01-01T02:10:33.800Z,50.13
2023-01-01T02:11:33.818Z,50.23
2023-01-01T02:12:33.837Z,50.23
2023-01-01T02:13:33.851Z,50.13
2023-01-01T02:14:33.869Z,50.13
2023-01-01T02:15:33.971Z,50.23
2023-01-01T02:16:33.923Z,50.23
2023-01-01T02:17:38.836Z,50.23
2023-01-01T02:18:33.969Z,50.13
2023-01-01T02:19:33.933Z,50.23
2023-01-01T02:20:33.953Z,50.23
2023-01-01T02:21:33.979Z,50.23
2023-01-01T02:22:34.024Z,50.23
2023-01-01T02:23:34.042Z,50.23
2023-01-01T02:24:34.065Z,50.23
2023-01-01T02:25:34.067Z,50.13
2023-01-01T02:26:34.096Z,50.13
2023-01-01T02:27:34.079Z,50.13
2023-01-01T02:28:34.103Z,50.13
2023-01-01T02:29:34.115Z,50.23
2023-01-01T02:30:34.126Z,50.23
2023-01-01T02:31:34.191Z,50.23
2023-01-01T02:32:34.145Z,50.23
2023-01-01T02:33:34.167Z,50.23
2023-01-01T02:34:34.220Z,50.23
2023-01-01T02:35:34.181Z,50.23
2023-01-01T02:36:34.184Z,50.23
2023-01-01T02:37:34.199Z,50.23
2023-01-01T02:38:34.222Z,50.33
2023-01-01T02:39:34.233Z,50.33
2023-01-01T02:40:34.283Z,50.33
2023-01-01T02:41:34.254Z,50.33
2023-01-01T02:42:34.282Z,50.33
2023-01-01T02:43:34.296Z,50.33
2023-01-01T02:44:34.301Z,50.33
2023-01-01T02:45:34.324Z,50.33
2023-01-01T02:46:34.363Z,50.33
2023-01-01T02:47:34.335Z,50.33
2023-01-01T02:48:34.356Z,50.33
2023-01-01T02:49:34.367Z,50.33
2023-01-01T02:50:34.408Z,50.43
2023-01-01T02:51:34.426Z,50.43
2023-01-01T02:52:34.404Z,50.43
2023-01-01T02:53:34.437Z,50.43
2023-01-01T02:54:34.454Z,50.43
2023-01-01T02:55:34.473Z,50.43
2023-01-01T02:56:34.509Z,50.53
2023-01-01T02:57:34.522Z,50.43
2023-01-01T02:58:34.538Z,50.43
2023-01-01T02:59:34.556Z,50.43
2023-01-01T03:00:34.631Z,50.43
2023-01-01T03:01:34.751Z,50.43
2023-01-01T03:02:34.707Z,50.43
2023-01-01T03:03:34.654Z,50.53
2023-01-01T03:04:34.645Z,50.53
2023-01-01T03:05:34.671Z,50.43
2023-01-01T03:06:34.705Z,50.43
2023-01-01T03:07:34.717Z,50.43
2023-01-01T03:08:34.728Z,50.43
2023-01-01T03:09:34.977Z,50.43
2023-01-01T03:10:34.766Z,50.53
2023-01-01T03:11:34.779Z,50.53
2023-01-01T03:12:34.783Z,50.53
2023-01-01T03:13:34.776Z,50.43
2023-01-01T03:14:34.791Z,50.53
2023-01-01T03:15:34.824Z,50.43
2023-01-01T03:16:34.857Z,50.43
2023-01-01T03:17:34.816Z,50.43
2023-01-01T03:18:34.848Z,50.43
2023-01-01T03:19:34.851Z,50.43
2023-01-01T03:20:34.874Z,50.43
2023-01-01T03:21:34.909Z,50.43
2023-01-01T03:22:34.954Z,50.43
2023-01-01T03:23:34.915Z,50.33
2023-01-01T03:24:34.920Z,50.33
2023-01-01T03:25:34.946Z,50.43
2023-01-01T03:26:34.976Z,50.43
2023-01-01T03:27:35.002Z,50.53
2023-01-01T03:28:34.974Z,50.43
2023-01-01T03:29:35.003Z,50.43
2023-01-01T03:30:35.003Z,50.43
2023-01-01T03:31:35.067Z,50.43
2023-01-01T03:32:35.047Z,50.43
2023-01-01T03:33:35.062Z,50.53
2023-01-01T03:34:35.095Z,50.43
2023-01-01T03:35:35.066Z,50.43
2023-01-01T03:36:35.088Z,50.43
2023-01-01T03:37:35.112Z,50.43
2023-01-01T03:38:35.163Z,50.43
2023-01-01T03:39:35.184Z,50.53
2023-01-01T03:40:35.165Z,50.53
2023-01-01T03:41:35.190Z,50.43
2023-01-01T03:42:35.207Z,50.53
2023-01-01T03:43:35.227Z,50.53
2023-01-01T03:44:35.273Z,50.53
2023-01-01T03:45:35.243Z,50.53
2023-01-01T03:46:35.277Z,50.53
2023-01-01T03:47:35.277Z,50.53
2023-01-01T03:48:35.329Z,50.43
2023-01-01T03:49:35.313Z,50.43
2023-01-01T03:50:35.332Z,50.53
2023-01-01T03:51:35.356Z,50.53
2023-01-01T03:52:35.379Z,50.43
2023-01-01T03:53:35.381Z,50.43
2023-01-01T03:54:35.483Z,50.43
2023-01-01T03:55:35.441Z,50.43
2023-01-01T03:56:35.452Z,50.33
2023-01-01T03:57:35.472Z,50.33
2023-01-01T03:58:35.512Z,50.43
2023-01-01T03:59:35.542Z,50.33
2023-01-01T04:00:35.567Z,50.33
2023-01-01T04:01:35.737Z,50.43
2023-01-01T04:02:35.768Z,50.43
2023-01-01T04:03:35.601Z,50.43
2023-01-01T04:04:35.608Z,50.43
2023-01-01T04:05:35.619Z,50.43
2023-01-01T04:06:35.637Z,50.43
2023-01-01T04:07:35.638Z,50.33
2023-01-01T04:08:35.666Z,50.33
2023-01-01T04:09:35.919Z,50.33
2023-01-01T04:10:35.699Z,50.33
2023-01-01T04:11:35.702Z,50.33
2023-01-01T04:12:35.716Z,50.33
2023-01-01T04:13:35.734Z,50.33
2023-01-01T04:14:35.761Z,50.43
2023-01-01T04:15:35.777Z,50.43
2023-01-01T04:16:35.859Z,50.43
2023-01-01T04:17:35.780Z,50.43
2023-01-01T04:18:35.792Z,50.43
2023-01-01T04:19:35.809Z,50.33
2023-01-01T04:20:35.829Z,50.43
2023-01-01T04:21:35.836Z,50.33
2023-01-01T04:22:35.864Z,50.33
2023-01-01T04:23:35.887Z,50.33
2023-01-01T04:24:35.907Z,50.33
2023-01-01T04:25:35.905Z,50.33
2023-01-01T04:26:35.955Z,50.33
2023-01-01T04:27:35.923Z,50.33
2023-01-01T04:28:35.935Z,50.33
2023-01-01T04:29:35.944Z,50.33
2023-01-01T04:31:35.979Z,50.33
2023-01-01T04:32:36.000Z,50.33
2023-01-01T04:33:36.010Z,50.23
2023-01-01T04:34:36.027Z,50.33
2023-01-01T04:35:36.040Z,50.33
2023-01-01T04:36:36.063Z,50.33
2023-01-01T04:37:36.077Z,50.23
2023-01-01T04:38:36.110Z,50.23
2023-01-01T04:39:36.098Z,50.23
2023-01-01T04:40:36.109Z,50.33
2023-01-01T04:41:36.143Z,50.33
2023-01-01T04:42:36.189Z,50.33
2023-01-01T04:43:36.165Z,50.33
2023-01-01T04:44:36.461Z,50.33
2023-01-01T04:45:36.279Z,50.33
2023-01-01T04:46:36.218Z,50.33
2023-01-01T04:47:36.226Z,50.23
2023-01-01T04:48:36.254Z,50.33
2023-01-01T04:49:36.269Z,50.33
2023-01-01T04:50:36.283Z,50.23
2023-01-01T04:51:36.302Z,50.23
2023-01-01T04:52:36.308Z,50.33
2023-01-01T04:53:36.323Z,50.33
2023-01-01T04:54:36.365Z,50.33
2023-01-01T04:55:36.341Z,50.23
2023-01-01T04:56:36.351Z,50.23
2023-01-01T04:57:36.355Z,50.23
2023-01-01T04:58:36.597Z,50.33
2023-01-01T04:59:36.398Z,50.23
2023-01-01T05:00:36.497Z,50.33
2023-01-01T05:01:36.525Z,50.23
2023-01-01T05:02:36.547Z,50.33
2023-01-01T05:03:36.454Z,50.33
2023-01-01T05:04:36.478Z,50.33
2023-01-01T05:05:36.488Z,50.23
2023-01-01T05:06:36.484Z,50.23
2023-01-01T05:07:36.506Z,50.23
2023-01-01T05:08:36.517Z,50.33
2023-01-01T05:09:36.548Z,50.33
2023-01-01T05:10:36.560Z,50.33
2023-01-01T05:11:36.564Z,50.23
2023-01-01T05:12:36.590Z,50.33
2023-01-01T05:13:36.631Z,50.33
2023-01-01T05:14:36.625Z,50.33
2023-01-01T05:15:36.588Z,50.33
2023-01-01T05:16:36.700Z,50.33
2023-01-01T05:17:36.607Z,50.23
2023-01-01T05:18:36.611Z,50.23
2023-01-01T05:19:36.636Z,50.23
2023-01-01T05:20:36.643Z,50.33
2023-01-01T05:21:36.637Z,50.33
2023-01-01T05:22:36.640Z,50.23
2023-01-01T05:23:36.686Z,50.33
2023-01-01T05:24:36.708Z,50.33
2023-01-01T05:25:36.721Z,50.33
2023-01-01T05:26:36.739Z,50.33
2023-01-01T05:27:36.757Z,50.33
2023-01-01T05:28:36.784Z,50.33
2023-01-01T05:29:36.792Z,50.33
2023-01-01T05:30:36.827Z,50.33
2023-01-01T05:31:36.831Z,50.33
2023-01-01T05:32:36.888Z,50.33
2023-01-01T05:33:36.852Z,50.33
2023-01-01T05:35:36.896Z,50.33
2023-01-01T05:36:36.908Z,50.33
2023-01-01T05:37:36.964Z,50.43
2023-01-01T05:38:36.936Z,50.43
2023-01-01T05:39:36.949Z,50.33
2023-01-01T05:40:36.955Z,50.33
2023-01-01T05:41:37.102Z,50.33
2023-01-01T05:42:37.001Z,50.33
2023-01-01T05:43:36.984Z,50.33
2023-01-01T05:44:37.003Z,50.33
2023-01-01T05:45:37.110Z,50.33
2023-01-01T05:46:37.048Z,50.33
2023-01-01T05:47:37.269Z,50.43
2023-01-01T05:48:37.009Z,50.43
2023-01-01T05:49:37.015Z,50.43
2023-01-01T05:50:37.049Z,50.43
2023-01-01T05:52:37.338Z,50.33
2023-01-01T05:53:37.114Z,50.33
2023-01-01T05:54:37.129Z,50.33
2023-01-01T05:55:37.156Z,50.33
2023-01-01T05:56:37.171Z,50.33
2023-01-01T05:57:37.206Z,50.33
2023-01-01T05:58:37.173Z,50.43
2023-01-01T05:59:37.197Z,50.43
2023-01-01T06:00:37.198Z,50.43
2023-01-01T06:01:43.490Z,50.43
2023-01-01T06:02:37.305Z,50.43
2023-01-01T06:03:37.263Z,50.43
2023-01-01T06:04:37.390Z,50.43
2023-01-01T06:05:37.249Z,50.43
2023-01-01T06:06:37.271Z,50.43
2023-01-01T06:07:37.280Z,50.43
2023-01-01T06:08:37.294Z,50.43
2023-01-01T06:09:37.331Z,50.43
2023-01-01T06:10:37.348Z,50.53
2023-01-01T06:11:37.359Z,50.53
2023-01-01T06:12:37.376Z,50.53
2023-01-01T06:13:37.408Z,50.53
2023-01-01T06:14:37.624Z,50.53
2023-01-01T06:15:37.395Z,50.53
2023-01-01T06:16:37.571Z,50.53
2023-01-01T06:17:37.425Z,50.53
2023-01-01T06:18:37.468Z,50.53
2023-01-01T06:19:37.432Z,50.53
2023-01-01T06:20:37.452Z,50.56
2023-01-01T06:21:37.499Z,50.66
2023-01-01T06:22:37.470Z,50.66
2023-01-01T06:23:37.507Z,50.66
2023-01-01T06:24:39.330Z,50.63
2023-01-01T06:25:37.504Z,50.53
2023-01-01T06:26:37.542Z,50.56
2023-01-01T06:27:37.557Z,50.66
2023-01-01T06:28:37.522Z,50.66
2023-01-01T06:29:37.537Z,50.66
2023-01-01T06:30:37.622Z,50.66
2023-01-01T06:31:40.851Z,50.66
2023-01-01T06:32:37.543Z,50.66
2023-01-01T06:33:37.545Z,50.66
2023-01-01T06:34:37.610Z,50.66
2023-01-01T06:35:37.581Z,50.66
2023-01-01T06:36:37.622Z,50.66
2023-01-01T06:37:37.625Z,50.66
2023-01-01T06:38:37.657Z,50.66
2023-01-01T06:39:37.630Z,50.66
2023-01-01T06:40:37.655Z,50.66
2023-01-01T06:41:37.691Z,50.66
2023-01-01T06:42:37.690Z,50.66
2023-01-01T06:43:37.691Z,50.66
2023-01-01T06:44:37.703Z,50.66
2023-01-01T06:45:37.723Z,50.66
2023-01-01T06:46:37.866Z,50.66
2023-01-01T06:47:37.734Z,50.66
2023-01-01T06:48:37.749Z,50.66
2023-01-01T06:49:37.779Z,50.66
2023-01-01T06:50:37.826Z,50.66
2023-01-01T06:51:37.807Z,50.66
2023-01-01T06:52:37.823Z,50.66
2023-01-01T06:53:37.820Z,50.66
2023-01-01T06:54:37.835Z,50.66
2023-01-01T06:55:37.854Z,50.66
2023-01-01T06:56:37.914Z,50.76
2023-01-01T06:57:37.890Z,50.66
2023-01-01T06:58:37.884Z,50.66
2023-01-01T06:59:37.890Z,50.66
2023-01-01T07:00:37.907Z,50.66
2023-01-01T07:01:38.050Z,50.76
2023-01-01T07:02:38.159Z,50.66
2023-01-01T07:03:38.032Z,50.66
2023-01-01T07:04:37.962Z,50.66
2023-01-01T07:05:37.980Z,50.76
2023-01-01T07:06:38.036Z,50.76
2023-01-01T07:07:38.000Z,50.76
2023-01-01T07:08:38.046Z,50.66
2023-01-01T07:09:38.049Z,50.66
2023-01-01T07:10:38.062Z,50.66
2023-01-01T07:11:38.092Z,50.76
2023-01-01T07:12:38.062Z,50.66
2023-01-01T07:13:38.073Z,50.66
2023-01-01T07:14:38.088Z,50.66
2023-01-01T07:15:38.143Z,50.53
2023-01-01T07:16:38.222Z,50.66
2023-01-01T07:17:38.129Z,50.66
2023-01-01T07:18:38.151Z,50.66
2023-01-01T07:19:38.169Z,50.66
2023-01-01T07:20:38.194Z,50.66
2023-01-01T07:21:38.192Z,50.66
2023-01-01T07:22:38.246Z,50.66
2023-01-01T07:23:38.235Z,50.66
2023-01-01T07:24:38.216Z,50.66
2023-01-01T07:25:38.238Z,50.66
2023-01-01T07:26:38.254Z,50.53
2023-01-01T07:27:38.270Z,50.53
2023-01-01T07:28:38.287Z,50.53
2023-01-01T07:29:38.297Z,50.53
2023-01-01T07:30:38.302Z,50.53
2023-01-01T07:31:38.446Z,50.53
2023-01-01T07:32:38.322Z,50.53
2023-01-01T07:33:38.335Z,50.53
2023-01-01T07:34:38.381Z,50.53
2023-01-01T07:35:38.369Z,50.53
2023-01-01T07:36:38.416Z,50.53
2023-01-01T07:37:38.397Z,50.53
2023-01-01T07:38:38.455Z,50.53
2023-01-01T07:39:38.426Z,50.53
2023-01-01T07:40:38.450Z,50.53
2023-01-01T07:41:38.491Z,50.53
2023-01-01T07:42:38.505Z,50.53
2023-01-01T07:43:38.532Z,50.53
2023-01-01T07:44:38.565Z,50.53
2023-01-01T07:45:38.550Z,50.53
2023-01-01T07:46:38.690Z,50.43
2023-01-01T07:47:38.602Z,50.43
2023-01-01T07:48:40.351Z,50.43
2023-01-01T07:49:38.653Z,50.43
2023-01-01T07:50:38.637Z,50.43
2023-01-01T07:51:38.651Z,50.43
2023-01-01T07:52:38.674Z,50.43
2023-01-01T07:53:38.710Z,50.43
2023-01-01T07:54:38.752Z,50.33
2023-01-01T07:55:38.711Z,50.33
2023-01-01T07:56:38.738Z,50.33
2023-01-01T07:57:38.745Z,50.33
2023-01-01T07:58:38.763Z,50.33
2023-01-01T07:59:38.748Z,50.33
2023-01-01T08:00:38.745Z,50.33
2023-01-01T08:01:38.869Z,50.23
2023-01-01T08:02:39.017Z,50.23
2023-01-01T08:03:38.924Z,50.23
2023-01-01T08:04:38.784Z,50.33
2023-01-01T08:05:38.815Z,50.33
2023-01-01T08:06:38.784Z,50.23
2023-01-01T08:07:38.797Z,50.33
2023-01-01T08:08:38.783Z,50.23
2023-01-01T08:09:38.823Z,50.33
2023-01-01T08:10:38.869Z,50.23
2023-01-01T08:11:38.875Z,50.33
2023-01-01T08:12:38.855Z,50.23
2023-01-01T08:13:38.936Z,50.23
2023-01-01T08:14:38.888Z,50.23
2023-01-01T08:15:38.958Z,50.23
2023-01-01T08:16:38.959Z,50.23
2023-01-01T08:17:45.945Z,50.23
2023-01-01T08:18:38.935Z,50.23
2023-01-01T08:19:38.970Z,50.23
2023-01-01T08:20:38.966Z,50.13
2023-01-01T08:21:38.966Z,50.13
2023-01-01T08:22:38.970Z,50.13
2023-01-01T08:23:39.014Z,50.23
2023-01-01T08:24:38.991Z,50.23
2023-01-01T08:25:38.970Z,50.23
2023-01-01T08:26:39.022Z,50.23
2023-01-01T08:27:38.987Z,50.13
2023-01-01T08:28:38.989Z,50.11
2023-01-01T08:29:39.004Z,50.11
2023-01-01T08:30:39.055Z,50.11
2023-01-01T08:31:39.080Z,50.01
2023-01-01T08:32:39.038Z,50.01
2023-01-01T08:33:39.067Z,50.01
2023-01-01T08:34:39.086Z,50.11
2023-01-01T08:35:39.116Z,50.13
2023-01-01T08:36:39.151Z,50.11
2023-01-01T08:37:39.176Z,50.11
2023-01-01T08:38:39.194Z,50.01
2023-01-01T08:39:39.223Z,50.01
2023-01-01T08:40:39.252Z,50.01
2023-01-01T08:41:39.266Z,50.01
2023-01-01T08:42:39.336Z,49.91
2023-01-01T08:43:39.316Z,50.01
2023-01-01T08:44:39.311Z,50.01
2023-01-01T08:45:39.333Z,50.01
2023-01-01T08:46:39.393Z,50.01
2023-01-01T08:47:39.388Z,50.01
2023-01-01T08:48:39.427Z,50.01
2023-01-01T08:49:39.442Z,49.91
2023-01-01T08:50:39.463Z,49.91
2023-01-01T08:51:39.502Z,49.91
2023-01-01T08:52:39.510Z,49.91
2023-01-01T08:53:41.146Z,49.91
2023-01-01T08:54:39.572Z,49.80
2023-01-01T08:55:39.595Z,49.80
2023-01-01T08:56:39.613Z,49.80
2023-01-01T08:57:39.637Z,49.80
2023-01-01T08:58:39.718Z,49.80
2023-01-01T08:59:39.689Z,49.80
2023-01-01T09:00:39.713Z,49.71
2023-01-01T09:01:39.843Z,49.71
2023-01-01T09:02:39.930Z,49.71
2023-01-01T09:03:39.810Z,49.71
2023-01-01T09:04:39.746Z,49.71
2023-01-01T09:05:39.799Z,49.71
2023-01-01T09:06:39.767Z,49.71
2023-01-01T09:07:39.778Z,49.68
2023-01-01T09:08:39.760Z,49.58
2023-01-01T09:09:39.797Z,49.58
2023-01-01T09:10:39.772Z,49.58
2023-01-01T09:11:39.807Z,49.58
2023-01-01T09:12:39.824Z,49.58
2023-01-01T09:13:39.819Z,49.48
2023-01-01T09:14:39.825Z,49.48
2023-01-01T09:15:39.791Z,49.48
2023-01-01T09:16:44.035Z,49.48
2023-01-01T09:17:39.822Z,49.48
2023-01-01T09:18:39.847Z,49.48
2023-01-01T09:19:39.844Z,49.48
2023-01-01T09:20:39.818Z,49.48
2023-01-01T09:21:39.833Z,49.48
2023-01-01T09:22:39.871Z,49.48
2023-01-01T09:23:39.859Z,49.48
2023-01-01T09:24:39.867Z,49.38
2023-01-01T09:25:39.899Z,49.38
2023-01-01T09:26:39.931Z,49.38
2023-01-01T09:27:39.962Z,49.48
2023-01-01T09:28:40.004Z,49.48
2023-01-01T09:29:40.032Z,49.38
2023-01-01T09:30:40.070Z,49.38
2023-01-01T09:31:40.140Z,49.38
2023-01-01T09:32:40.074Z,49.38
2023-01-01T09:33:40.131Z,49.38
2023-01-01T09:34:40.097Z,49.38
2023-01-01T09:35:40.131Z,49.38
2023-01-01T09:36:40.159Z,49.28
2023-01-01T09:37:40.181Z,49.38
2023-01-01T09:38:40.203Z,49.38
2023-01-01T09:39:40.239Z,49.38
2023-01-01T09:40:40.684Z,49.38
2023-01-01T09:41:40.215Z,49.38
2023-01-01T09:42:40.230Z,49.28
2023-01-01T09:43:40.261Z,49.28
2023-01-01T09:44:40.232Z,49.28
2023-01-01T09:45:40.320Z,49.28
2023-01-01T09:46:40.298Z,49.28
2023-01-01T09:47:40.264Z,49.28
2023-01-01T09:48:40.295Z,49.28
2023-01-01T09:49:40.492Z,49.28
2023-01-01T09:50:40.285Z,49.28
2023-01-01T09:51:48.760Z,49.28
2023-01-01T09:52:40.303Z,49.28
2023-01-01T09:53:40.335Z,49.16
2023-01-01T09:54:40.371Z,49.16
2023-01-01T09:55:40.344Z,49.26
2023-01-01T09:56:40.347Z,49.16
2023-01-01T09:57:40.360Z,49.16
2023-01-01T09:58:40.402Z,49.16
2023-01-01T09:59:40.370Z,49.16
2023-01-01T10:00:40.402Z,49.16
2023-01-01T10:01:40.580Z,49.05
2023-01-01T10:02:40.438Z,49.05
2023-01-01T10:03:40.471Z,49.05
2023-01-01T10:04:40.430Z,49.05
2023-01-01T10:05:40.397Z,48.96
2023-01-01T10:06:40.448Z,48.96
2023-01-01T10:07:40.440Z,48.96
2023-01-01T10:08:40.472Z,48.96
2023-01-01T10:09:40.494Z,48.96
2023-01-01T10:10:40.537Z,48.86
2023-01-01T10:11:40.812Z,48.86
2023-01-01T10:12:40.570Z,48.86
2023-01-01T10:13:40.580Z,48.86
2023-01-01T10:14:40.592Z,48.86
2023-01-01T10:15:40.617Z,48.86
2023-01-01T10:16:40.955Z,48.86
2023-01-01T10:17:40.647Z,48.86
2023-01-01T10:18:40.709Z,48.75
2023-01-01T10:19:40.666Z,48.73
2023-01-01T10:20:40.669Z,48.73
2023-01-01T10:21:45.144Z,48.73
2023-01-01T10:22:40.823Z,48.73
2023-01-01T10:23:40.713Z,48.63
2023-01-01T10:24:40.702Z,48.63
2023-01-01T10:25:40.713Z,48.63
2023-01-01T10:26:40.734Z,48.53
2023-01-01T10:27:40.745Z,48.53
2023-01-01T10:28:40.781Z,48.43
2023-01-01T10:29:40.747Z,48.43
2023-01-01T10:30:40.792Z,48.43
2023-01-01T10:31:40.889Z,48.43
2023-01-01T10:32:40.849Z,48.33
2023-01-01T10:33:40.820Z,48.43
2023-01-01T10:34:40.894Z,48.33
2023-01-01T10:35:40.864Z,48.33
2023-01-01T10:36:40.907Z,48.33
2023-01-01T10:37:40.899Z,48.33
2023-01-01T10:38:41.125Z,48.33
2023-01-01T10:39:40.919Z,48.31
2023-01-01T10:40:40.938Z,48.21
2023-01-01T10:41:40.923Z,48.21
2023-01-01T10:42:40.935Z,48.21
2023-01-01T10:43:40.972Z,48.11
2023-01-01T10:44:40.945Z,48.21
2023-01-01T10:45:41.016Z,48.11
2023-01-01T10:46:40.970Z,48.11
2023-01-01T10:47:40.989Z,48.11
2023-01-01T10:48:40.948Z,48.11
2023-01-01T10:49:40.975Z,48.11
2023-01-01T10:50:41.021Z,48.11
2023-01-01T10:51:40.995Z,48.11
2023-01-01T10:52:41.003Z,48.11
2023-01-01T10:53:41.040Z,48.11
2023-01-01T10:54:41.076Z,48.11
2023-01-01T10:55:41.133Z,48.11
2023-01-01T10:56:41.104Z,48.11
2023-01-01T10:57:41.091Z,48.11
2023-01-01T10:58:41.127Z,48.11
2023-01-01T10:59:41.129Z,48.11
2023-01-01T11:00:41.115Z,48.11
2023-01-01T11:01:41.278Z,48.11
2023-01-01T11:02:41.296Z,48.11
2023-01-01T11:03:41.198Z,48.11
2023-01-01T11:04:41.167Z,48.11
2023-01-01T11:05:41.189Z,48.11
2023-01-01T11:06:41.368Z,48.11
2023-01-01T11:07:41.227Z,48.11
2023-01-01T11:08:41.269Z,48.11
2023-01-01T11:09:48.010Z,48.11
2023-01-01T11:10:41.268Z,48.11
2023-01-01T11:11:41.318Z,48.11
2023-01-01T11:13:08.559Z,48.11
2023-01-01T11:13:41.300Z,48.11
2023-01-01T11:14:41.282Z,48.21
2023-01-01T11:15:41.396Z,48.11
2023-01-01T11:16:41.393Z,48.11
2023-01-01T11:17:41.331Z,48.11
2023-01-01T11:18:41.450Z,48.11
2023-01-01T11:19:45.709Z,48.01
2023-01-01T11:20:41.378Z,48.01
2023-01-01T11:21:41.431Z,48.01
2023-01-01T11:22:41.441Z,48.01
2023-01-01T11:23:41.420Z,48.01
2023-01-01T11:24:41.441Z,48.01
2023-01-01T11:25:41.468Z,48.01
2023-01-01T11:26:41.485Z,47.91
2023-01-01T11:27:41.505Z,47.91
2023-01-01T11:28:41.566Z,47.91
2023-01-01T11:29:41.536Z,47.91
2023-01-01T11:30:41.622Z,47.91
2023-01-01T11:31:41.575Z,47.78
2023-01-01T11:32:41.600Z,47.78
2023-01-01T11:33:41.607Z,47.78
2023-01-01T11:34:41.639Z,47.78
2023-01-01T11:35:41.675Z,47.78
2023-01-01T11:36:41.711Z,47.69
2023-01-01T11:37:41.733Z,47.58
2023-01-01T11:38:41.774Z,47.58
2023-01-01T11:39:41.792Z,47.69
2023-01-01T11:40:41.837Z,47.58
2023-01-01T11:41:41.812Z,47.58
2023-01-01T11:42:41.797Z,47.58
2023-01-01T11:43:41.820Z,47.58
2023-01-01T11:44:41.857Z,47.58
2023-01-01T11:45:41.846Z,47.49
2023-01-01T11:46:42.149Z,47.49
2023-01-01T11:47:41.901Z,47.49
2023-01-01T11:48:41.877Z,47.38
2023-01-01T11:49:41.922Z,47.38
2023-01-01T11:50:41.931Z,47.38
2023-01-01T11:51:41.948Z,47.38
2023-01-01T11:52:41.974Z,47.38
2023-01-01T11:53:41.956Z,47.26
2023-01-01T11:54:42.006Z,47.26
2023-01-01T11:55:41.981Z,47.26
2023-01-01T11:56:42.025Z,47.26
2023-01-01T11:57:41.993Z,47.16
2023-01-01T11:58:42.026Z,47.16
2023-01-01T11:59:42.063Z,47.16
2023-01-01T12:00:42.091Z,47.16
2023-01-01T12:01:42.131Z,47.16
2023-01-01T12:02:42.164Z,47.16
2023-01-01T12:03:42.143Z,47.06
2023-01-01T12:04:42.132Z,47.06
2023-01-01T12:05:42.146Z,47.16
2023-01-01T12:06:42.177Z,47.16
2023-01-01T12:07:42.213Z,47.06
2023-01-01T12:08:42.193Z,47.16
2023-01-01T12:09:42.219Z,47.16
2023-01-01T12:10:42.255Z,47.16
2023-01-01T12:11:42.232Z,47.16
2023-01-01T12:12:42.213Z,47.16
2023-01-01T12:13:42.236Z,47.06
2023-01-01T12:14:42.254Z,47.06
2023-01-01T12:15:42.331Z,47.06
2023-01-01T12:16:42.323Z,46.96
2023-01-01T12:17:42.304Z,46.96
2023-01-01T12:18:42.336Z,47.06
2023-01-01T12:19:42.341Z,47.06
2023-01-01T12:20:42.318Z,47.06
2023-01-01T12:21:45.167Z,47.06
2023-01-01T12:22:42.303Z,47.06
2023-01-01T12:23:42.303Z,47.06
2023-01-01T12:24:42.357Z,47.06
2023-01-01T12:25:42.339Z,47.06
2023-01-01T12:26:42.374Z,47.16
2023-01-01T12:27:42.369Z,47.16
2023-01-01T12:28:42.348Z,47.26
2023-01-01T12:29:42.391Z,47.26
2023-01-01T12:30:42.400Z,47.26
2023-01-01T12:31:42.480Z,47.26
2023-01-01T12:32:42.422Z,47.38
2023-01-01T12:33:42.438Z,47.38
2023-01-01T12:34:42.480Z,47.49
2023-01-01T12:35:42.447Z,47.49
2023-01-01T12:36:42.474Z,47.49
2023-01-01T12:37:42.489Z,47.49
2023-01-01T12:38:42.516Z,47.58
2023-01-01T12:39:42.546Z,47.58
2023-01-01T12:40:42.556Z,47.58
2023-01-01T12:41:42.577Z,47.58
2023-01-01T12:42:42.615Z,47.58
2023-01-01T12:43:42.612Z,47.58
2023-01-01T12:44:42.624Z,47.58
2023-01-01T12:45:42.686Z,47.58
2023-01-01T12:46:42.920Z,47.58
2023-01-01T12:47:42.643Z,47.49
2023-01-01T12:48:42.661Z,47.49
2023-01-01T12:49:42.696Z,47.49
2023-01-01T12:50:45.690Z,47.58
2023-01-01T12:51:42.724Z,47.49
2023-01-01T12:52:42.773Z,47.49
2023-01-01T12:53:42.750Z,47.49
2023-01-01T12:54:42.781Z,47.49
2023-01-01T12:55:42.767Z,47.38
2023-01-01T12:56:42.796Z,47.38